Terminal Aerodrome Forecast
Issued by NWS

Current Version | Previous Version | Text Only | Print | Product List | Glossary Off
Versions: 1 2 3 4 5 6 7 8 9 10 11 12 13 14 15 16 17 18 19 20

228
FTUS41 KPBZ 201728
TAFHLG
TAF
KHLG 201728Z 2018/2118 24012KT P6SM FEW045
     FM202000 23008KT P6SM VCTS BKN045CB
     FM210200 23005KT P6SM SCT050=

USA.gov is the U.S. government's official web portal to all federal, state and local government web resources and services.